Time;durP1;ratioP1;P1;durP2;ratioP2;P2;SDS_P1;SDS_P2;PMS_P1;PMS_P2;Temp;Humidity;BMP_temperature;BMP_pressure;BME280_temperature;BME280_humidity;BME280_pressure;Samples;Min_cycle;Max_cycle;Signal;HPM_P1;HPM_P2
2023/06/16 00:00:36;;;;;;;10.23;5.30;;;;;;;;;;5066251;28;20041;-60
2023/06/16 00:03:23;;;;;;;13.90;6.03;;;;;;;;;;5061032;28;20364;-61
2023/06/16 00:05:49;;;;;;;8.93;5.35;;;;;;;;;;5062865;28;20056;-61
2023/06/16 00:08:16;;;;;;;10.52;5.75;;;;;;;;;;5063995;28;20048;-60
2023/06/16 00:10:42;;;;;;;12.60;6.50;;;;;;;;;;5062404;28;20041;-61
2023/06/16 00:13:09;;;;;;;15.75;6.90;;;;;;;;;;5062738;28;20040;-61
2023/06/16 00:15:35;;;;;;;23.85;6.53;;;;;;;;;;5064313;28;20110;-61
2023/06/16 00:18:01;;;;;;;14.98;7.47;;;;;;;;;;5064876;28;20113;-61
2023/06/16 00:20:27;;;;;;;12.90;6.13;;;;;;;;;;5065466;28;20051;-61
2023/06/16 00:22:54;;;;;;;12.70;6.38;;;;;;;;;;5064786;28;20044;-60
2023/06/16 00:25:20;;;;;;;12.00;6.28;;;;;;;;;;5062449;28;20049;-59
2023/06/16 00:27:46;;;;;;;16.25;6.20;;;;;;;;;;5060884;28;20052;-60
2023/06/16 00:30:12;;;;;;;12.88;6.43;;;;;;;;;;5056169;28;20044;-61
2023/06/16 00:32:39;;;;;;;13.00;6.03;;;;;;;;;;5063266;28;20056;-61
2023/06/16 00:35:05;;;;;;;10.00;6.05;;;;;;;;;;5064595;28;20140;-61
2023/06/16 00:37:31;;;;;;;10.63;6.05;;;;;;;;;;5064333;28;20356;-60
2023/06/16 00:39:57;;;;;;;16.48;6.47;;;;;;;;;;5062191;28;20052;-62
2023/06/16 00:42:23;;;;;;;17.20;6.53;;;;;;;;;;5058843;28;20114;-60
2023/06/16 00:44:49;;;;;;;14.23;6.20;;;;;;;;;;5062408;28;20495;-60
2023/06/16 00:47:15;;;;;;;10.25;6.00;;;;;;;;;;5066902;28;20052;-60
2023/06/16 00:49:41;;;;;;;16.02;5.47;;;;;;;;;;5061634;28;20514;-60
2023/06/16 00:52:12;;;;;;;15.68;6.13;;;;;;;;;;5062583;28;20121;-63
2023/06/16 00:54:38;;;;;;;13.65;6.28;;;;;;;;;;5062603;28;20052;-62
2023/06/16 00:57:05;;;;;;;12.45;5.88;;;;;;;;;;5059063;28;20500;-63
2023/06/16 00:59:31;;;;;;;13.65;5.78;;;;;;;;;;5061048;28;20488;-63
2023/06/16 01:01:57;;;;;;;14.27;6.10;;;;;;;;;;5056681;28;20495;-62
2023/06/16 01:04:23;;;;;;;9.07;5.60;;;;;;;;;;5066228;28;20090;-63
2023/06/16 01:06:58;;;;;;;11.77;5.93;;;;;;;;;;5061604;28;20471;-61
2023/06/16 01:09:41;;;;;;;13.50;5.53;;;;;;;;;;5062087;28;20115;-63
2023/06/16 01:12:14;;;;;;;14.27;6.10;;;;;;;;;;5064836;28;20048;-62
2023/06/16 01:15:07;;;;;;;9.45;5.28;;;;;;;;;;5072445;28;20519;-64
2023/06/16 01:17:37;;;;;;;12.10;5.40;;;;;;;;;;5064561;28;20496;-61
2023/06/16 01:20:42;;;;;;;12.65;6.03;;;;;;;;;;5066491;28;20042;-61
2023/06/16 01:23:37;;;;;;;12.70;5.70;;;;;;;;;;5020418;28;20064;-68
2023/06/16 01:26:09;;;;;;;9.60;5.53;;;;;;;;;;5017651;28;20045;-62
2023/06/16 01:28:40;;;;;;;10.40;5.32;;;;;;;;;;5020100;28;20547;-61
2023/06/16 01:31:08;;;;;;;12.30;5.28;;;;;;;;;;5013417;28;20053;-61
2023/06/16 01:33:37;;;;;;;9.70;4.90;;;;;;;;;;5018686;28;20053;-61
2023/06/16 01:36:04;;;;;;;7.65;4.97;;;;;;;;;;5022536;28;20092;-62
2023/06/16 01:38:32;;;;;;;10.65;5.22;;;;;;;;;;5022346;28;20580;-60
2023/06/16 01:40:59;;;;;;;10.55;5.32;;;;;;;;;;5016695;28;20185;-62
2023/06/16 01:43:26;;;;;;;9.75;5.50;;;;;;;;;;5002973;28;20046;-61
2023/06/16 01:45:52;;;;;;;8.88;5.03;;;;;;;;;;5020736;28;20107;-61
2023/06/16 01:48:20;;;;;;;9.57;5.78;;;;;;;;;;5003510;28;20064;-62
2023/06/16 01:50:46;;;;;;;8.43;5.43;;;;;;;;;;5019143;28;20057;-62
2023/06/16 01:53:13;;;;;;;10.32;5.53;;;;;;;;;;5015316;28;20050;-62
2023/06/16 01:55:38;;;;;;;10.75;5.35;;;;;;;;;;5022786;28;20060;-63
2023/06/16 01:58:06;;;;;;;9.80;5.60;;;;;;;;;;5013241;28;20057;-66
2023/06/16 02:00:37;;;;;;;11.95;6.05;;;;;;;;;;5065618;28;20057;-61
2023/06/16 02:03:17;;;;;;;10.25;5.50;;;;;;;;;;5068436;28;20048;-61
2023/06/16 02:05:47;;;;;;;12.65;5.80;;;;;;;;;;5056134;28;20105;-62
2023/06/16 02:08:15;;;;;;;10.15;5.30;;;;;;;;;;5064921;28;20163;-62
2023/06/16 02:10:42;;;;;;;10.85;5.50;;;;;;;;;;5061583;28;20116;-63
2023/06/16 02:13:08;;;;;;;8.25;5.47;;;;;;;;;;5064655;28;20475;-61
2023/06/16 02:15:35;;;;;;;11.50;5.43;;;;;;;;;;5069661;28;20040;-61
2023/06/16 02:18:02;;;;;;;12.18;5.25;;;;;;;;;;5067920;28;20045;-62
2023/06/16 02:20:28;;;;;;;13.63;5.40;;;;;;;;;;5070658;28;20057;-62
2023/06/16 02:22:54;;;;;;;8.30;5.35;;;;;;;;;;5065931;28;20044;-60
2023/06/16 02:25:20;;;;;;;8.88;5.15;;;;;;;;;;5072246;28;20094;-59
2023/06/16 02:27:47;;;;;;;10.38;5.43;;;;;;;;;;5071077;28;20040;-62
2023/06/16 02:30:14;;;;;;;7.90;5.35;;;;;;;;;;5067486;28;20064;-62
2023/06/16 02:32:41;;;;;;;9.00;5.30;;;;;;;;;;5077085;28;20048;-62
2023/06/16 02:35:09;;;;;;;8.27;5.63;;;;;;;;;;5069021;28;20056;-61
2023/06/16 02:37:37;;;;;;;9.20;5.30;;;;;;;;;;5066782;28;20064;-62
2023/06/16 02:40:04;;;;;;;9.60;5.65;;;;;;;;;;5069936;28;20052;-63
2023/06/16 02:42:31;;;;;;;8.55;5.50;;;;;;;;;;5069406;28;20044;-62
2023/06/16 02:44:57;;;;;;;7.22;5.38;;;;;;;;;;5075310;28;20488;-63
2023/06/16 02:47:23;;;;;;;10.60;5.43;;;;;;;;;;5075058;28;20152;-62
2023/06/16 02:49:50;;;;;;;7.30;5.35;;;;;;;;;;5063233;28;20052;-62
2023/06/16 02:52:16;;;;;;;11.50;5.43;;;;;;;;;;5072407;28;20055;-62
2023/06/16 02:54:42;;;;;;;9.73;5.25;;;;;;;;;;5070241;28;20056;-64
2023/06/16 02:57:08;;;;;;;9.32;5.00;;;;;;;;;;5068877;28;20049;-63
2023/06/16 02:59:35;;;;;;;11.05;5.28;;;;;;;;;;5069132;28;20530;-63
2023/06/16 03:02:03;;;;;;;7.32;5.00;;;;;;;;;;5067611;28;20127;-64
2023/06/16 03:04:29;;;;;;;10.57;5.18;;;;;;;;;;5080968;28;20052;-62
2023/06/16 03:07:02;;;;;;;11.25;5.47;;;;;;;;;;5044755;28;20056;-62
2023/06/16 03:09:28;;;;;;;9.43;5.40;;;;;;;;;;5073727;28;20052;-62
2023/06/16 03:11:55;;;;;;;10.10;6.07;;;;;;;;;;5063939;28;20048;-61
2023/06/16 03:14:21;;;;;;;10.77;5.55;;;;;;;;;;5070537;28;20048;-62
2023/06/16 03:16:48;;;;;;;11.65;5.60;;;;;;;;;;5067610;28;20488;-61
2023/06/16 03:19:15;;;;;;;7.60;5.70;;;;;;;;;;5069471;28;20048;-62
2023/06/16 03:21:42;;;;;;;10.18;5.75;;;;;;;;;;5071388;28;20048;-61
2023/06/16 03:24:13;;;;;;;13.15;5.47;;;;;;;;;;5071756;28;20059;-62
2023/06/16 03:26:40;;;;;;;9.52;5.72;;;;;;;;;;5074044;28;20090;-61
2023/06/16 03:29:09;;;;;;;10.40;5.70;;;;;;;;;;5064821;28;20060;-63
2023/06/16 03:31:35;;;;;;;12.23;5.50;;;;;;;;;;5073370;28;20147;-61
2023/06/16 03:34:01;;;;;;;10.55;6.30;;;;;;;;;;5064522;28;20135;-62
2023/06/16 03:36:28;;;;;;;12.18;5.93;;;;;;;;;;5068946;28;20062;-60
2023/06/16 03:38:54;;;;;;;11.07;6.18;;;;;;;;;;5062779;28;20076;-62
2023/06/16 03:41:22;;;;;;;11.90;6.30;;;;;;;;;;5067901;28;20738;-62
2023/06/16 03:43:48;;;;;;;7.35;5.45;;;;;;;;;;5071289;28;20483;-61
2023/06/16 03:46:14;;;;;;;13.10;5.80;;;;;;;;;;5063334;28;20043;-65
2023/06/16 03:48:40;;;;;;;10.50;6.15;;;;;;;;;;5063343;28;20053;-62
2023/06/16 03:51:06;;;;;;;9.48;6.15;;;;;;;;;;5068757;28;20412;-61
2023/06/16 03:53:32;;;;;;;9.38;5.65;;;;;;;;;;5061770;28;20118;-61
2023/06/16 03:56:00;;;;;;;9.23;6.10;;;;;;;;;;5065159;28;20048;-61
2023/06/16 03:58:26;;;;;;;7.63;5.45;;;;;;;;;;5063955;28;20092;-61
2023/06/16 04:00:52;;;;;;;6.85;5.18;;;;;;;;;;5065524;28;20434;-61
2023/06/16 04:03:17;;;;;;;6.93;4.85;;;;;;;;;;5065794;28;20102;-61
2023/06/16 04:05:44;;;;;;;7.32;5.28;;;;;;;;;;5058667;28;20053;-60
2023/06/16 04:08:09;;;;;;;8.25;4.90;;;;;;;;;;5069773;28;20114;-61
2023/06/16 04:10:36;;;;;;;8.38;4.95;;;;;;;;;;5060215;28;20059;-63
2023/06/16 04:13:01;;;;;;;8.05;5.05;;;;;;;;;;5066233;28;20124;-64
2023/06/16 04:15:28;;;;;;;7.88;5.20;;;;;;;;;;5066103;28;20040;-61
2023/06/16 04:17:53;;;;;;;11.73;5.35;;;;;;;;;;5068539;28;20487;-61
2023/06/16 04:20:19;;;;;;;8.55;5.55;;;;;;;;;;5061532;28;20048;-62
2023/06/16 04:22:45;;;;;;;10.35;5.00;;;;;;;;;;5065193;28;20078;-61
2023/06/16 04:25:12;;;;;;;13.32;5.00;;;;;;;;;;5066748;28;20083;-64
2023/06/16 04:27:38;;;;;;;8.57;4.80;;;;;;;;;;5060170;28;20052;-62
2023/06/16 04:30:06;;;;;;;11.82;4.95;;;;;;;;;;5060895;28;20094;-62
2023/06/16 04:32:36;;;;;;;7.25;5.10;;;;;;;;;;5067259;28;20189;-63
2023/06/16 04:35:04;;;;;;;6.85;5.10;;;;;;;;;;5069148;28;20048;-62
2023/06/16 04:37:31;;;;;;;7.20;5.20;;;;;;;;;;5063811;28;20117;-63
2023/06/16 04:39:59;;;;;;;8.10;5.20;;;;;;;;;;5065434;28;20150;-63
2023/06/16 04:42:26;;;;;;;10.85;5.28;;;;;;;;;;5068150;28;20105;-64
2023/06/16 04:44:52;;;;;;;10.88;5.13;;;;;;;;;;5064237;28;20060;-66
2023/06/16 04:47:17;;;;;;;9.10;5.22;;;;;;;;;;5066017;28;20048;-62
2023/06/16 04:49:44;;;;;;;11.18;5.43;;;;;;;;;;5065302;28;20048;-62
2023/06/16 04:52:12;;;;;;;9.48;5.32;;;;;;;;;;5060727;28;20061;-65
2023/06/16 04:55:18;;;;;;;6.63;5.00;;;;;;;;;;5066361;28;20458;-62
2023/06/16 04:58:58;;;;;;;10.32;5.15;;;;;;;;;;5058849;28;20174;-61
2023/06/16 05:02:38;;;;;;;7.95;4.78;;;;;;;;;;5059173;28;20043;-58
2023/06/16 05:06:18;;;;;;;8.60;5.60;;;;;;;;;;5064241;28;20063;-59
2023/06/16 05:10:01;;;;;;;7.55;5.22;;;;;;;;;;5062948;28;20564;-63
2023/06/16 05:13:41;;;;;;;8.95;5.40;;;;;;;;;;5061478;28;20051;-59
2023/06/16 05:17:22;;;;;;;9.10;5.65;;;;;;;;;;5064095;28;20052;-57
2023/06/16 05:21:02;;;;;;;9.25;5.75;;;;;;;;;;5062315;28;20057;-60
2023/06/16 05:24:42;;;;;;;14.02;6.25;;;;;;;;;;5059960;28;20045;-60
2023/06/16 05:28:23;;;;;;;9.85;6.57;;;;;;;;;;5066429;28;20059;-59
2023/06/16 05:32:03;;;;;;;12.82;6.97;;;;;;;;;;5062357;28;20036;-63
2023/06/16 05:35:45;;;;;;;13.02;7.07;;;;;;;;;;5065644;28;20506;-56
2023/06/16 05:39:25;;;;;;;13.85;7.32;;;;;;;;;;5066242;28;20127;-57
2023/06/16 05:43:06;;;;;;;16.27;9.02;;;;;;;;;;5061760;28;20549;-60
2023/06/16 05:46:46;;;;;;;20.02;8.85;;;;;;;;;;5055007;28;20062;-58
2023/06/16 05:50:28;;;;;;;11.32;8.38;;;;;;;;;;5063892;28;20055;-58
2023/06/16 05:54:08;;;;;;;15.57;9.02;;;;;;;;;;5066943;28;20052;-58
2023/06/16 05:57:50;;;;;;;12.40;8.60;;;;;;;;;;5064293;28;20111;-62
2023/06/16 06:01:30;;;;;;;17.85;8.57;;;;;;;;;;5059082;28;20461;-61
2023/06/16 06:05:11;;;;;;;15.15;9.00;;;;;;;;;;5059787;28;20073;-63
2023/06/16 06:08:51;;;;;;;14.98;9.02;;;;;;;;;;5061403;28;20557;-58
2023/06/16 06:12:31;;;;;;;19.45;9.38;;;;;;;;;;5067293;28;20067;-60
2023/06/16 06:16:13;;;;;;;17.85;10.32;;;;;;;;;;5060777;28;20048;-61
2023/06/16 06:19:53;;;;;;;23.65;11.55;;;;;;;;;;5061917;28;20048;-61
2023/06/16 06:23:33;;;;;;;20.63;11.02;;;;;;;;;;5065489;28;20041;-64
2023/06/16 06:27:14;;;;;;;18.15;10.85;;;;;;;;;;5062631;28;20055;-62
2023/06/16 06:30:54;;;;;;;21.17;10.20;;;;;;;;;;5063561;28;20032;-65
2023/06/16 06:34:34;;;;;;;25.25;10.63;;;;;;;;;;5063243;28;20342;-61
2023/06/16 06:37:36;;;;;;;18.52;11.57;;;;;;;;;;5061018;28;20052;-62
2023/06/16 06:40:42;;;;;;;20.83;10.68;;;;;;;;;;5066349;28;20060;-61
2023/06/16 06:44:23;;;;;;;18.35;10.65;;;;;;;;;;5076236;28;20430;-62
2023/06/16 06:48:03;;;;;;;21.20;11.35;;;;;;;;;;5065345;28;20056;-62
2023/06/16 06:51:05;;;;;;;20.00;10.90;;;;;;;;;;5056833;28;20048;-62
2023/06/16 06:53:45;;;;;;;18.75;10.00;;;;;;;;;;5065799;28;20043;-60
2023/06/16 06:56:51;;;;;;;18.45;8.85;;;;;;;;;;5061001;28;20052;-61
2023/06/16 07:00:32;;;;;;;17.98;8.60;;;;;;;;;;5062044;28;20119;-62
2023/06/16 07:04:12;;;;;;;15.95;8.30;;;;;;;;;;5062807;28;20530;-60
2023/06/16 07:07:52;;;;;;;16.90;8.55;;;;;;;;;;5067035;28;20044;-64
2023/06/16 07:11:33;;;;;;;13.07;7.50;;;;;;;;;;5061913;28;20056;-65
2023/06/16 07:15:14;;;;;;;13.52;6.53;;;;;;;;;;5064500;28;20063;-64
2023/06/16 07:18:53;;;;;;;16.02;7.43;;;;;;;;;;5063315;28;20048;-61
2023/06/16 07:22:22;;;;;;;17.25;7.35;;;;;;;;;;5065847;28;20090;-65
2023/06/16 07:25:06;;;;;;;13.98;7.38;;;;;;;;;;5072451;28;20125;-64
2023/06/16 07:27:51;;;;;;;16.65;6.70;;;;;;;;;;5063699;28;20119;-65
2023/06/16 07:30:32;;;;;;;;;;;;;;;;;;5064702;28;20067;-64
2023/06/16 07:33:12;;;;;;;17.05;7.00;;;;;;;;;;5075100;28;19978;-65
2023/06/16 07:35:55;;;;;;;15.63;7.35;;;;;;;;;;5066472;28;20048;-65
2023/06/16 07:38:40;;;;;;;15.90;7.30;;;;;;;;;;5068761;28;20048;-65
2023/06/16 07:41:21;;;;;;;18.75;6.88;;;;;;;;;;5071308;28;20157;-65
2023/06/16 07:44:02;;;;;;;11.23;5.80;;;;;;;;;;5070932;28;20088;-65
2023/06/16 07:46:46;;;;;;;9.02;5.70;;;;;;;;;;5056025;28;20028;-64
2023/06/16 07:49:29;;;;;;;14.50;6.50;;;;;;;;;;5068806;28;20097;-65
2023/06/16 07:52:11;;;;;;;15.40;6.80;;;;;;;;;;5082707;28;20048;-66
2023/06/16 07:54:52;;;;;;;13.43;5.93;;;;;;;;;;5073633;28;20052;-64
2023/06/16 07:57:33;;;;;;;17.98;5.60;;;;;;;;;;5072324;28;20049;-65
2023/06/16 07:59:59;;;;;;;17.95;7.75;;;;;;;;;;5071063;28;20063;-63
2023/06/16 08:02:25;;;;;;;16.90;7.70;;;;;;;;;;5073819;28;20056;-64
2023/06/16 08:04:52;;;;;;;13.25;6.70;;;;;;;;;;5069385;28;20072;-64
2023/06/16 08:07:18;;;;;;;19.40;6.30;;;;;;;;;;5073904;28;20407;-65
2023/06/16 08:09:44;;;;;;;22.33;6.60;;;;;;;;;;5076228;28;20048;-66
2023/06/16 08:12:10;;;;;;;14.40;6.50;;;;;;;;;;5076861;28;20054;-65
2023/06/16 08:14:37;;;;;;;14.18;6.32;;;;;;;;;;5074713;28;20056;-65
2023/06/16 08:17:03;;;;;;;11.70;6.40;;;;;;;;;;5070597;28;20051;-63
2023/06/16 08:19:29;;;;;;;15.90;6.00;;;;;;;;;;5066887;28;20187;-66
2023/06/16 08:21:55;;;;;;;10.88;5.68;;;;;;;;;;5065236;28;20105;-66
2023/06/16 08:24:22;;;;;;;14.65;5.43;;;;;;;;;;5069268;28;20040;-66
2023/06/16 08:26:48;;;;;;;15.43;6.20;;;;;;;;;;5072108;28;20052;-67
2023/06/16 08:29:15;;;;;;;11.50;5.65;;;;;;;;;;5068800;28;20052;-67
2023/06/16 08:31:41;;;;;;;9.50;4.90;;;;;;;;;;5067132;28;20131;-66
2023/06/16 08:34:07;;;;;;;12.02;5.32;;;;;;;;;;5066483;28;20059;-68
2023/06/16 08:36:35;;;;;;;14.77;5.43;;;;;;;;;;5068147;28;20043;-65
2023/06/16 08:39:05;;;;;;;10.52;4.60;;;;;;;;;;5063621;28;20084;-65
2023/06/16 08:41:35;;;;;;;9.73;4.85;;;;;;;;;;5063990;28;20689;-64
2023/06/16 08:44:03;;;;;;;16.02;4.60;;;;;;;;;;5066332;28;20051;-64
2023/06/16 08:46:31;;;;;;;16.27;4.18;;;;;;;;;;5065837;28;20060;-66
2023/06/16 08:48:59;;;;;;;8.88;4.38;;;;;;;;;;5071424;28;20070;-64
2023/06/16 08:51:28;;;;;;;10.18;4.57;;;;;;;;;;5066453;28;20106;-66
2023/06/16 08:54:02;;;;;;;12.45;5.18;;;;;;;;;;5068522;28;20519;-66
2023/06/16 08:56:33;;;;;;;14.48;5.47;;;;;;;;;;5060451;28;20488;-64
2023/06/16 08:59:01;;;;;;;12.93;4.75;;;;;;;;;;5075890;28;20496;-65
2023/06/16 09:01:34;;;;;;;11.00;4.70;;;;;;;;;;5069357;28;20078;-66
2023/06/16 09:04:08;;;;;;;12.60;4.95;;;;;;;;;;5069969;28;20048;-65
2023/06/16 09:06:36;;;;;;;14.55;5.07;;;;;;;;;;5065758;28;20546;-65
2023/06/16 09:09:04;;;;;;;10.63;4.68;;;;;;;;;;5065419;28;20487;-67
2023/06/16 09:11:38;;;;;;;10.88;5.07;;;;;;;;;;5070580;28;20479;-65
2023/06/16 09:14:16;;;;;;;6.25;4.63;;;;;;;;;;5072481;28;20080;-64
2023/06/16 09:16:52;;;;;;;10.52;5.07;;;;;;;;;;5061836;28;20066;-66
2023/06/16 09:19:20;;;;;;;9.43;4.53;;;;;;;;;;5049648;28;20063;-64
2023/06/16 09:21:53;;;;;;;8.10;4.78;;;;;;;;;;5071266;28;20052;-67
2023/06/16 09:24:24;;;;;;;7.95;4.78;;;;;;;;;;5063303;28;20408;-66
2023/06/16 09:26:52;;;;;;;8.70;4.50;;;;;;;;;;5064459;28;20067;-66
2023/06/16 09:29:23;;;;;;;13.00;5.15;;;;;;;;;;5069250;28;20060;-67
2023/06/16 09:32:11;;;;;;;10.27;4.68;;;;;;;;;;5068407;28;20079;-63
2023/06/16 09:34:37;;;;;;;11.15;4.70;;;;;;;;;;5059762;28;20074;-65
2023/06/16 09:37:06;;;;;;;9.55;4.88;;;;;;;;;;5061927;28;20265;-67
2023/06/16 09:39:32;;;;;;;8.13;4.40;;;;;;;;;;5070410;28;20110;-65
2023/06/16 09:42:02;;;;;;;8.35;4.38;;;;;;;;;;5076529;28;20529;-64
2023/06/16 09:44:30;;;;;;;11.02;4.50;;;;;;;;;;5075346;28;20102;-65
2023/06/16 09:47:00;;;;;;;9.23;4.45;;;;;;;;;;5067747;28;20052;-65
2023/06/16 09:49:26;;;;;;;9.00;4.32;;;;;;;;;;5076548;28;20226;-64
2023/06/16 09:51:57;;;;;;;8.07;4.18;;;;;;;;;;5063069;28;20116;-67
2023/06/16 09:54:28;;;;;;;9.95;4.82;;;;;;;;;;5065232;28;20054;-66
2023/06/16 09:56:55;;;;;;;9.93;4.70;;;;;;;;;;5064886;28;20079;-66
2023/06/16 09:59:25;;;;;;;10.93;4.38;;;;;;;;;;5065970;28;20126;-67
2023/06/16 10:01:54;;;;;;;8.95;4.03;;;;;;;;;;5067570;28;20044;-66
2023/06/16 10:04:24;;;;;;;8.27;3.97;;;;;;;;;;5070605;28;20048;-69
2023/06/16 10:07:03;;;;;;;9.93;3.97;;;;;;;;;;5064820;28;20091;-65
2023/06/16 10:09:40;;;;;;;7.05;3.63;;;;;;;;;;5059718;28;20502;-65
2023/06/16 10:12:09;;;;;;;10.00;3.75;;;;;;;;;;5065216;28;20404;-66
2023/06/16 10:14:36;;;;;;;7.93;3.88;;;;;;;;;;5067375;28;20048;-65
2023/06/16 10:17:05;;;;;;;6.63;4.03;;;;;;;;;;5065201;28;20048;-66
2023/06/16 10:19:34;;;;;;;11.32;4.40;;;;;;;;;;5066613;28;20048;-66
2023/06/16 10:22:02;;;;;;;7.32;4.00;;;;;;;;;;5065669;28;20103;-66
2023/06/16 10:24:29;;;;;;;6.57;3.78;;;;;;;;;;5067143;28;20056;-66
2023/06/16 10:26:56;;;;;;;6.95;3.97;;;;;;;;;;5075572;28;20074;-66
2023/06/16 10:29:25;;;;;;;6.97;3.78;;;;;;;;;;5067470;28;20365;-66
2023/06/16 10:32:11;;;;;;;6.07;3.92;;;;;;;;;;5067117;28;20442;-68
2023/06/16 10:34:51;;;;;;;7.43;3.83;;;;;;;;;;5073445;28;20120;-66
2023/06/16 10:37:21;;;;;;;13.23;4.65;;;;;;;;;;5069495;28;20059;-66
2023/06/16 10:39:47;;;;;;;7.55;3.83;;;;;;;;;;5069535;28;20064;-65
2023/06/16 10:42:15;;;;;;;7.97;3.75;;;;;;;;;;5072545;28;20041;-65
2023/06/16 10:44:44;;;;;;;7.03;3.30;;;;;;;;;;5078046;28;20071;-68
2023/06/16 10:47:10;;;;;;;7.68;3.60;;;;;;;;;;5076559;28;20130;-66
2023/06/16 10:50:04;;;;;;;7.32;3.30;;;;;;;;;;5069909;28;20552;-66
2023/06/16 10:52:42;;;;;;;8.52;3.92;;;;;;;;;;5066220;28;20056;-65
2023/06/16 10:55:17;;;;;;;7.10;3.60;;;;;;;;;;5073286;28;20562;-66
2023/06/16 10:57:46;;;;;;;9.70;4.00;;;;;;;;;;5073017;28;20059;-66
2023/06/16 11:00:14;;;;;;;8.88;3.55;;;;;;;;;;5049988;28;20063;-66
2023/06/16 11:02:54;;;;;;;7.45;3.58;;;;;;;;;;5071532;28;20052;-66
2023/06/16 11:05:23;;;;;;;7.10;3.63;;;;;;;;;;5063069;28;20125;-64
2023/06/16 11:08:01;;;;;;;9.25;3.47;;;;;;;;;;5072868;28;20049;-65
2023/06/16 11:10:52;;;;;;;7.85;3.92;;;;;;;;;;5078590;28;20570;-65
2023/06/16 11:13:25;;;;;;;9.90;3.50;;;;;;;;;;5065620;28;20579;-64
2023/06/16 11:15:54;;;;;;;7.40;3.08;;;;;;;;;;5067163;28;20040;-65
2023/06/16 11:18:25;;;;;;;7.53;3.28;;;;;;;;;;5074730;28;20633;-65
2023/06/16 11:21:06;;;;;;;8.80;3.40;;;;;;;;;;5068236;28;20053;-66
2023/06/16 11:23:34;;;;;;;9.60;3.53;;;;;;;;;;5071021;28;20055;-70
2023/06/16 11:26:08;;;;;;;5.57;3.55;;;;;;;;;;5070380;28;20075;-68
2023/06/16 11:28:37;;;;;;;7.30;3.53;;;;;;;;;;5068396;28;20041;-66
2023/06/16 11:31:06;;;;;;;7.18;3.33;;;;;;;;;;5068525;28;20036;-67
2023/06/16 11:33:33;;;;;;;7.05;3.53;;;;;;;;;;5070941;28;20047;-65
2023/06/16 11:36:27;;;;;;;11.43;4.28;;;;;;;;;;5067281;28;20052;-65
2023/06/16 11:38:56;;;;;;;6.47;3.50;;;;;;;;;;5064829;28;20110;-66
2023/06/16 11:41:29;;;;;;;;;;;;;;;;;;5068633;28;20740;-66
2023/06/16 11:43:57;;;;;;;11.35;3.65;;;;;;;;;;5071558;28;19921;-66
2023/06/16 11:46:26;;;;;;;14.80;4.90;;;;;;;;;;5065759;28;20139;-66
2023/06/16 11:48:54;;;;;;;9.77;3.53;;;;;;;;;;5068862;28;20757;-66
2023/06/16 11:51:21;;;;;;;11.93;3.60;;;;;;;;;;5066286;28;20136;-65
2023/06/16 11:53:47;;;;;;;7.75;3.42;;;;;;;;;;5065311;28;20052;-67
2023/06/16 11:56:16;;;;;;;9.07;3.40;;;;;;;;;;5056791;28;21662;-67
2023/06/16 11:58:44;;;;;;;7.50;3.42;;;;;;;;;;5066118;28;20049;-66
2023/06/16 12:01:15;;;;;;;8.48;3.70;;;;;;;;;;5064757;28;20067;-66
2023/06/16 12:03:46;;;;;;;7.68;3.58;;;;;;;;;;5068766;28;20522;-67
2023/06/16 12:06:14;;;;;;;10.90;3.42;;;;;;;;;;5068940;28;20488;-66
2023/06/16 12:08:48;;;;;;;10.25;3.47;;;;;;;;;;5067558;28;20265;-68
2023/06/16 12:11:27;;;;;;;7.63;3.55;;;;;;;;;;5069606;28;20083;-68
2023/06/16 12:13:54;;;;;;;10.80;3.78;;;;;;;;;;5069964;28;20303;-69
2023/06/16 12:16:22;;;;;;;9.30;3.30;;;;;;;;;;5066448;28;20052;-68
2023/06/16 12:18:51;;;;;;;7.93;3.80;;;;;;;;;;5068425;28;20045;-68
2023/06/16 12:21:23;;;;;;;8.25;3.70;;;;;;;;;;5064044;28;20051;-75
2023/06/16 12:23:59;;;;;;;5.88;3.35;;;;;;;;;;5079198;28;20080;-69
2023/06/16 12:26:44;;;;;;;7.82;3.58;;;;;;;;;;5069191;28;20107;-67
2023/06/16 12:29:12;;;;;;;8.10;3.97;;;;;;;;;;5044405;28;20052;-70
2023/06/16 12:31:55;;;;;;;6.40;3.55;;;;;;;;;;5065287;28;20132;-68
2023/06/16 12:34:25;;;;;;;9.38;3.70;;;;;;;;;;5069243;28;20075;-66
2023/06/16 12:37:01;;;;;;;10.65;3.70;;;;;;;;;;5065144;28;20298;-68
2023/06/16 12:39:29;;;;;;;7.70;3.80;;;;;;;;;;5067060;28;20056;-69
2023/06/16 12:42:00;;;;;;;6.80;3.70;;;;;;;;;;5071405;28;20056;-68
2023/06/16 12:44:45;;;;;;;8.02;3.72;;;;;;;;;;5069152;28;20053;-69
2023/06/16 12:47:13;;;;;;;5.32;3.20;;;;;;;;;;5069347;28;20076;-66
2023/06/16 12:49:39;;;;;;;7.57;3.78;;;;;;;;;;5061904;28;20048;-66
2023/06/16 12:52:07;;;;;;;4.90;3.00;;;;;;;;;;5068113;28;20060;-67
2023/06/16 12:54:34;;;;;;;8.30;3.15;;;;;;;;;;5066265;28;20053;-66
2023/06/16 12:57:09;;;;;;;9.90;3.38;;;;;;;;;;5074610;28;20083;-67
2023/06/16 12:59:35;;;;;;;9.68;3.20;;;;;;;;;;5066247;28;20052;-66
2023/06/16 13:02:03;;;;;;;6.65;2.70;;;;;;;;;;5068584;28;20048;-67
2023/06/16 13:04:30;;;;;;;6.15;2.90;;;;;;;;;;5068239;28;20130;-67
2023/06/16 13:07:00;;;;;;;6.07;3.13;;;;;;;;;;5059510;28;20419;-67
2023/06/16 13:09:26;;;;;;;7.25;3.53;;;;;;;;;;5067722;28;20067;-65
2023/06/16 13:11:55;;;;;;;8.15;3.78;;;;;;;;;;5064647;28;20056;-66
2023/06/16 13:14:22;;;;;;;8.32;4.03;;;;;;;;;;5064100;28;20474;-69
2023/06/16 13:16:49;;;;;;;8.77;3.75;;;;;;;;;;5069152;28;20122;-69
2023/06/16 13:19:19;;;;;;;5.18;3.45;;;;;;;;;;5072131;28;20040;-68
2023/06/16 13:21:47;;;;;;;5.25;3.08;;;;;;;;;;5063697;28;20044;-68
2023/06/16 13:24:14;;;;;;;7.68;3.50;;;;;;;;;;5063473;28;20048;-72
2023/06/16 13:26:41;;;;;;;8.75;3.72;;;;;;;;;;5070056;28;20064;-68
2023/06/16 13:29:08;;;;;;;9.07;3.78;;;;;;;;;;5071276;28;20048;-65
2023/06/16 13:31:35;;;;;;;8.98;3.55;;;;;;;;;;5070042;28;20076;-73
2023/06/16 13:34:03;;;;;;;9.60;3.20;;;;;;;;;;5068898;28;20064;-68
2023/06/16 13:36:32;;;;;;;8.90;3.45;;;;;;;;;;5069712;28;20056;-66
2023/06/16 13:38:59;;;;;;;6.20;3.10;;;;;;;;;;5069158;28;20036;-69
2023/06/16 13:41:26;;;;;;;6.10;2.70;;;;;;;;;;5053017;28;20078;-69
2023/06/16 13:43:54;;;;;;;5.75;2.90;;;;;;;;;;5064472;28;20158;-67
2023/06/16 13:46:21;;;;;;;7.07;2.83;;;;;;;;;;5061213;28;20059;-64
2023/06/16 13:48:47;;;;;;;7.85;3.13;;;;;;;;;;5068237;28;20055;-65
2023/06/16 13:51:15;;;;;;;7.85;3.20;;;;;;;;;;5065376;28;20825;-69
2023/06/16 13:53:45;;;;;;;14.30;3.40;;;;;;;;;;5067311;28;20518;-67
2023/06/16 13:56:13;;;;;;;6.00;3.22;;;;;;;;;;5069620;28;20056;-66
2023/06/16 13:58:39;;;;;;;7.68;3.85;;;;;;;;;;5068403;28;20044;-66
2023/06/16 14:01:06;;;;;;;10.60;4.40;;;;;;;;;;5066182;28;20052;-67
2023/06/16 14:03:32;;;;;;;9.00;4.70;;;;;;;;;;5070776;28;20040;-68
2023/06/16 14:06:01;;;;;;;8.02;5.20;;;;;;;;;;5066404;28;20075;-69
2023/06/16 14:08:28;;;;;;;11.20;4.95;;;;;;;;;;5064671;28;20044;-67
2023/06/16 14:10:55;;;;;;;9.90;4.88;;;;;;;;;;5062562;28;20056;-67
2023/06/16 14:13:23;;;;;;;9.98;4.95;;;;;;;;;;5062374;28;20048;-66
2023/06/16 14:16:01;;;;;;;12.45;6.18;;;;;;;;;;5069419;28;20132;-66
2023/06/16 14:19:06;;;;;;;6.97;4.90;;;;;;;;;;5058202;28;20071;-71
2023/06/16 14:22:48;;;;;;;11.82;4.82;;;;;;;;;;5056129;28;20037;-68
2023/06/16 14:26:31;;;;;;;16.55;4.82;;;;;;;;;;5053201;28;20056;-70
2023/06/16 14:30:11;;;;;;;13.20;4.93;;;;;;;;;;5060477;28;20135;-68
2023/06/16 14:33:53;;;;;;;7.88;4.50;;;;;;;;;;5063610;28;20045;-70
2023/06/16 14:37:32;;;;;;;8.35;4.85;;;;;;;;;;5061203;28;20503;-68
2023/06/16 14:41:14;;;;;;;8.27;4.50;;;;;;;;;;5049732;28;20057;-69
2023/06/16 14:44:55;;;;;;;7.75;3.75;;;;;;;;;;5067316;28;20058;-69
2023/06/16 14:48:36;;;;;;;7.10;3.50;;;;;;;;;;5066314;28;20084;-69
2023/06/16 14:52:17;;;;;;;7.50;3.17;;;;;;;;;;5059304;28;20053;-68
2023/06/16 14:55:58;;;;;;;6.68;3.10;;;;;;;;;;5062813;28;20140;-68
2023/06/16 14:59:39;;;;;;;5.80;3.05;;;;;;;;;;5053158;28;20097;-69
2023/06/16 15:03:22;;;;;;;7.53;2.80;;;;;;;;;;5057441;28;20045;-68
2023/06/16 15:07:04;;;;;;;6.00;2.70;;;;;;;;;;5062396;28;20048;-70
2023/06/16 15:10:45;;;;;;;5.90;2.70;;;;;;;;;;5071733;28;20407;-68
2023/06/16 15:14:28;;;;;;;7.10;3.13;;;;;;;;;;5064254;28;20037;-69
2023/06/16 15:18:08;;;;;;;4.38;2.55;;;;;;;;;;5056667;28;20084;-70
2023/06/16 15:21:51;;;;;;;6.88;2.90;;;;;;;;;;5056854;28;20073;-67
2023/06/16 15:25:33;;;;;;;5.95;2.63;;;;;;;;;;5071979;28;20036;-73
2023/06/16 15:29:16;;;;;;;7.50;2.60;;;;;;;;;;5078543;28;20061;-68
2023/06/16 15:32:56;;;;;;;5.10;2.60;;;;;;;;;;5065024;28;22502;-70
2023/06/16 15:36:36;;;;;;;5.00;2.67;;;;;;;;;;5061205;28;20052;-70
2023/06/16 15:40:17;;;;;;;5.43;2.58;;;;;;;;;;5064091;28;20056;-68
2023/06/16 15:43:58;;;;;;;4.45;2.90;;;;;;;;;;5052833;28;20080;-69
2023/06/16 15:47:42;;;;;;;7.18;2.70;;;;;;;;;;5060682;28;20387;-69
2023/06/16 15:51:22;;;;;;;6.30;2.53;;;;;;;;;;5057347;28;20083;-69
2023/06/16 15:54:24;;;;;;;8.93;3.05;;;;;;;;;;5051271;28;20052;-69
2023/06/16 15:56:50;;;;;;;5.30;2.70;;;;;;;;;;5054378;28;20806;-67
2023/06/16 15:59:56;;;;;;;6.80;3.10;;;;;;;;;;5054371;28;20076;-70
2023/06/16 16:03:37;;;;;;;10.88;2.97;;;;;;;;;;5056735;28;20036;-66
2023/06/16 16:07:17;;;;;;;8.18;3.17;;;;;;;;;;5051282;28;20119;-73
2023/06/16 16:10:57;;;;;;;6.80;2.78;;;;;;;;;;5052503;28;20049;-67